createdAt,value
2018-10-02T01:31:15.277Z,1016.40
2018-10-02T01:31:15.849Z,1016.40
2018-10-02T01:31:16.450Z,1016.42
2018-10-02T01:31:17.053Z,1016.39
2018-10-02T01:31:17.649Z,1016.42
2018-10-02T01:31:18.247Z,1016.41
2018-10-02T01:31:18.847Z,1016.42
2018-10-02T01:31:19.448Z,1016.41
2018-10-02T01:32:13.954Z,1016.43
2018-10-02T01:32:14.525Z,1016.42
2018-10-02T01:32:15.129Z,1016.40
2018-10-02T01:32:15.729Z,1016.36
2018-10-02T01:32:16.324Z,1016.37
2018-10-02T01:32:16.924Z,1016.38
2018-10-02T01:32:17.523Z,1016.38
2018-10-02T01:32:18.123Z,1016.35
2018-10-02T01:33:11.605Z,1016.39
2018-10-02T01:33:12.179Z,1016.34
2018-10-02T01:33:12.778Z,1016.35
2018-10-02T01:33:13.381Z,1016.35
2018-10-02T01:33:13.979Z,1016.31
2018-10-02T01:33:14.578Z,1016.36
2018-10-02T01:33:15.184Z,1016.34
2018-10-02T01:33:15.783Z,1016.37
2018-10-02T01:34:09.260Z,1016.32
2018-10-02T01:34:09.831Z,1016.32
2018-10-02T01:34:10.432Z,1016.32
2018-10-02T01:34:11.032Z,1016.32
2018-10-02T01:34:11.630Z,1016.32
2018-10-02T01:34:12.231Z,1016.35
2018-10-02T01:34:12.831Z,1016.34
2018-10-02T01:34:13.431Z,1016.36
2018-10-02T01:35:07.934Z,1016.34
2018-10-02T01:35:08.508Z,1016.33
2018-10-02T01:35:09.107Z,1016.37
2018-10-02T01:35:09.713Z,1016.35
2018-10-02T01:35:10.312Z,1016.35
2018-10-02T01:35:10.906Z,1016.36
2018-10-02T01:35:11.506Z,1016.33
2018-10-02T01:35:12.107Z,1016.35
2018-10-02T01:36:05.587Z,1016.35
2018-10-02T01:36:06.160Z,1016.35
2018-10-02T01:36:06.762Z,1016.34
2018-10-02T01:36:07.359Z,1016.31
2018-10-02T01:36:07.960Z,1016.29
2018-10-02T01:36:08.558Z,1016.27
2018-10-02T01:36:09.159Z,1016.31
2018-10-02T01:36:09.759Z,1016.31
2018-10-02T01:37:04.262Z,1016.30
2018-10-02T01:37:04.834Z,1016.28
2018-10-02T01:37:05.435Z,1016.26
2018-10-02T01:37:06.035Z,1016.25
2018-10-02T01:37:06.633Z,1016.29
2018-10-02T01:37:07.233Z,1016.29
2018-10-02T01:37:07.834Z,1016.27
2018-10-02T01:37:08.434Z,1016.27
2018-10-02T01:38:01.918Z,1016.28
2018-10-02T01:38:02.489Z,1016.23
2018-10-02T01:38:03.091Z,1016.28
2018-10-02T01:38:03.690Z,1016.28
2018-10-02T01:38:04.287Z,1016.29
2018-10-02T01:38:04.887Z,1016.27
2018-10-02T01:38:05.487Z,1016.23
2018-10-02T01:38:06.089Z,1016.29
2018-10-02T01:38:59.566Z,1016.25
2018-10-02T01:39:00.144Z,1016.21
2018-10-02T01:39:00.740Z,1016.19
2018-10-02T01:39:01.340Z,1016.21
2018-10-02T01:39:01.942Z,1016.22
2018-10-02T01:39:02.539Z,1016.23
2018-10-02T01:39:03.139Z,1016.23
2018-10-02T01:39:03.741Z,1016.24
2018-10-02T01:41:16.356Z,1016.21
2018-10-02T01:41:16.858Z,1016.21
2018-10-02T01:41:17.455Z,1016.18
2018-10-02T01:41:18.056Z,1016.22
2018-10-02T01:41:18.657Z,1016.19
2018-10-02T01:41:19.255Z,1016.18
2018-10-02T01:41:19.855Z,1016.14
2018-10-02T01:41:20.456Z,1016.18
2018-10-02T01:41:21.054Z,1016.20
2018-10-02T01:41:21.655Z,1016.22
2018-10-02T01:41:22.254Z,1016.23
2018-10-02T01:42:17.303Z,1016.15
2018-10-02T01:42:17.876Z,1016.12
2018-10-02T01:42:18.474Z,1016.16
2018-10-02T01:42:19.074Z,1016.14
2018-10-02T01:42:19.674Z,1016.14
2018-10-02T01:42:20.274Z,1016.19
2018-10-02T01:43:22.745Z,1016.08
2018-10-02T01:43:23.311Z,1016.12
2018-10-02T01:43:23.911Z,1016.08
2018-10-02T01:43:24.509Z,1016.10
2018-10-02T01:43:25.110Z,1016.09
2018-10-02T01:43:25.709Z,1016.10
2018-10-02T01:43:26.310Z,1016.08
2018-10-02T01:43:26.909Z,1016.08
2018-10-02T01:43:27.509Z,1016.07
2018-10-02T01:43:28.109Z,1016.07
2018-10-02T01:43:28.708Z,1016.09
2018-10-02T01:43:29.308Z,1016.07
2018-10-02T01:44:22.847Z,1016.08
2018-10-02T01:44:23.420Z,1016.08
2018-10-02T01:44:24.022Z,1016.09
2018-10-02T01:44:24.619Z,1016.07
2018-10-02T01:44:25.218Z,1016.08
2018-10-02T01:44:25.818Z,1016.05
2018-10-02T01:44:26.419Z,1016.07
2018-10-02T01:44:27.021Z,1016.08
2018-10-02T01:45:20.498Z,1016.07
2018-10-02T01:45:21.072Z,1016.06
2018-10-02T01:45:21.672Z,1016.08
2018-10-02T01:45:22.272Z,1016.09
2018-10-02T01:45:22.870Z,1016.04
2018-10-02T01:45:23.473Z,1016.07
2018-10-02T01:45:24.071Z,1016.07
2018-10-02T01:45:24.671Z,1016.10
2018-10-02T01:46:18.150Z,1016.09
2018-10-02T01:46:18.724Z,1016.08
2018-10-02T01:46:19.323Z,1016.12
2018-10-02T01:46:19.923Z,1016.11
2018-10-02T01:46:20.525Z,1016.10
2018-10-02T01:46:21.123Z,1016.07
2018-10-02T01:46:21.723Z,1016.05
2018-10-02T01:46:22.323Z,1016.04
2018-10-02T01:47:15.807Z,1016.14
2018-10-02T01:47:16.376Z,1016.12
2018-10-02T01:47:16.976Z,1016.12
2018-10-02T01:47:17.576Z,1016.12
2018-10-02T01:47:18.175Z,1016.12
2018-10-02T01:47:18.775Z,1016.12
2018-10-02T01:47:19.376Z,1016.11
2018-10-02T01:47:19.973Z,1016.15
2018-10-02T01:48:14.481Z,1016.12
2018-10-02T01:48:15.055Z,1016.12
2018-10-02T01:48:15.650Z,1016.14
2018-10-02T01:48:16.251Z,1016.15
2018-10-02T01:48:16.849Z,1016.13
2018-10-02T01:48:17.451Z,1016.13
2018-10-02T01:48:18.048Z,1016.11
2018-10-02T01:48:18.649Z,1016.14
2018-10-02T01:49:13.153Z,1016.08
2018-10-02T01:49:13.726Z,1016.06
2018-10-02T01:49:14.326Z,1016.11
2018-10-02T01:49:14.925Z,1016.11
2018-10-02T01:49:15.526Z,1016.11
2018-10-02T01:49:16.126Z,1016.08
2018-10-02T01:49:16.726Z,1016.10
2018-10-02T01:49:17.325Z,1016.10
2018-10-02T01:50:10.808Z,1016.06
2018-10-02T01:50:11.378Z,1016.03
2018-10-02T01:50:11.978Z,1016.03
2018-10-02T01:50:12.580Z,1016.04
2018-10-02T01:50:13.181Z,1016.05
2018-10-02T01:50:13.778Z,1016.07
2018-10-02T01:50:14.378Z,1016.00
2018-10-02T01:50:14.977Z,1016.06
2018-10-02T01:51:08.466Z,1016.04
2018-10-02T01:51:09.032Z,1016.05
2018-10-02T01:51:09.631Z,1016.05
2018-10-02T01:51:10.232Z,1016.05
2018-10-02T01:51:10.830Z,1016.07
2018-10-02T01:51:11.429Z,1016.08
2018-10-02T01:51:12.030Z,1016.08
2018-10-02T01:51:12.628Z,1016.09
2018-10-02T01:52:06.110Z,1016.00
2018-10-02T01:52:06.682Z,1016.06
2018-10-02T01:52:07.282Z,1016.06
2018-10-02T01:52:07.884Z,1016.07
2018-10-02T01:52:08.483Z,1016.06
2018-10-02T01:52:09.081Z,1016.03
2018-10-02T01:52:09.681Z,1016.04
2018-10-02T01:52:10.281Z,1015.99
2018-10-02T01:53:03.764Z,1016.05
2018-10-02T01:53:04.335Z,1016.03
2018-10-02T01:53:04.934Z,1016.03
2018-10-02T01:53:05.535Z,1016.03
2018-10-02T01:53:06.132Z,1016.04
2018-10-02T01:53:06.733Z,1016.04
2018-10-02T01:53:07.335Z,1016.02
2018-10-02T01:53:07.934Z,1016.05
2018-10-02T01:54:01.414Z,1016.05
2018-10-02T01:54:01.989Z,1016.05
2018-10-02T01:54:02.585Z,1016.08
2018-10-02T01:54:03.183Z,1016.07
2018-10-02T01:54:03.784Z,1016.09
2018-10-02T01:54:04.385Z,1016.07
2018-10-02T01:54:04.983Z,1016.07
2018-10-02T01:54:05.584Z,1016.07
2018-10-02T01:55:00.089Z,1016.08
2018-10-02T01:55:00.661Z,1016.04
2018-10-02T01:55:01.260Z,1016.05
2018-10-02T01:55:01.863Z,1016.05
2018-10-02T01:55:02.464Z,1016.02
2018-10-02T01:55:03.058Z,1016.02
2018-10-02T01:55:03.657Z,1016.04
2018-10-02T01:55:04.259Z,1016.03
2018-10-02T01:55:58.763Z,1016.02
2018-10-02T01:55:59.336Z,1015.99
2018-10-02T01:55:59.937Z,1016.00
2018-10-02T01:56:00.539Z,1016.01
2018-10-02T01:56:01.136Z,1015.98
2018-10-02T01:56:01.736Z,1016.01
2018-10-02T01:56:02.335Z,1015.98
2018-10-02T01:56:02.938Z,1016.00
2018-10-02T01:56:57.438Z,1016.00
2018-10-02T01:56:58.012Z,1016.03
2018-10-02T01:56:58.614Z,1016.02
2018-10-02T01:56:59.211Z,1016.00
2018-10-02T01:56:59.811Z,1016.01
2018-10-02T01:57:00.410Z,1016.03
2018-10-02T01:57:01.011Z,1016.04
2018-10-02T01:57:01.611Z,1016.04
2018-10-02T01:57:55.092Z,1016.04
2018-10-02T01:57:55.668Z,1016.06
2018-10-02T01:57:56.265Z,1016.04
2018-10-02T01:57:56.865Z,1016.00
2018-10-02T01:57:57.464Z,1016.04
2018-10-02T01:57:58.064Z,1016.05
2018-10-02T01:57:58.665Z,1016.06
2018-10-02T01:57:59.264Z,1016.05
2018-10-02T01:58:53.767Z,1016.00
2018-10-02T01:58:54.341Z,1016.01
2018-10-02T01:58:54.940Z,1016.01
2018-10-02T01:58:55.541Z,1016.02
2018-10-02T01:58:56.140Z,1015.98
2018-10-02T01:58:56.739Z,1015.99
2018-10-02T01:58:57.339Z,1016.02
2018-10-02T01:58:57.939Z,1016.01
2018-10-02T01:59:51.421Z,1016.03
2018-10-02T01:59:51.991Z,1016.04
2018-10-02T01:59:52.591Z,1016.01
2018-10-02T01:59:53.191Z,1016.01
2018-10-02T01:59:53.792Z,1016.01
2018-10-02T01:59:54.392Z,1016.02
2018-10-02T01:59:54.991Z,1016.01
2018-10-02T01:59:55.591Z,1016.02
2018-10-02T02:00:50.095Z,1015.99
2018-10-02T02:00:50.669Z,1015.98
2018-10-02T02:00:51.267Z,1015.99
2018-10-02T02:00:51.867Z,1016.00
2018-10-02T02:00:52.467Z,1015.97
2018-10-02T02:00:53.067Z,1016.00
2018-10-02T02:00:53.667Z,1015.98
2018-10-02T02:00:54.266Z,1015.98
2018-10-02T02:01:47.746Z,1016.02
2018-10-02T02:01:48.324Z,1015.98
2018-10-02T02:01:48.920Z,1016.03
2018-10-02T02:01:49.519Z,1016.01
2018-10-02T02:01:50.119Z,1016.01
2018-10-02T02:01:50.720Z,1016.00
2018-10-02T02:01:51.318Z,1015.98
2018-10-02T02:01:51.923Z,1016.00
2018-10-02T02:02:45.400Z,1016.01
2018-10-02T02:02:46.027Z,1016.03
2018-10-02T02:02:46.570Z,1016.02
2018-10-02T02:02:47.169Z,1016.03
2018-10-02T02:02:47.772Z,1016.01
2018-10-02T02:02:48.369Z,1015.98
2018-10-02T02:02:48.972Z,1016.01
2018-10-02T02:02:49.570Z,1016.01
2018-10-02T02:03:43.564Z,1016.02
2018-10-02T02:03:44.138Z,1016.01
2018-10-02T02:03:44.733Z,1016.01
2018-10-02T02:03:45.334Z,1015.99
2018-10-02T02:03:45.934Z,1016.02
2018-10-02T02:03:46.534Z,1016.00
2018-10-02T02:03:47.134Z,1016.00
2018-10-02T02:04:41.625Z,1015.98
2018-10-02T02:04:42.198Z,1015.92
2018-10-02T02:04:42.795Z,1015.99
2018-10-02T02:04:43.395Z,1015.98
2018-10-02T02:04:43.995Z,1015.98
2018-10-02T02:04:44.595Z,1015.97
2018-10-02T02:04:45.195Z,1015.98
2018-10-02T02:04:45.793Z,1015.97
2018-10-02T02:05:39.277Z,1015.94
2018-10-02T02:05:39.849Z,1015.97
2018-10-02T02:05:40.447Z,1015.96
2018-10-02T02:05:41.048Z,1015.96
2018-10-02T02:05:41.650Z,1015.93
2018-10-02T02:05:42.246Z,1015.93
2018-10-02T02:05:42.845Z,1015.96
2018-10-02T02:05:43.446Z,1015.94
2018-10-02T02:06:37.952Z,1015.97
2018-10-02T02:06:38.524Z,1015.92
2018-10-02T02:06:39.126Z,1015.93
2018-10-02T02:06:39.722Z,1015.95
2018-10-02T02:06:40.323Z,1015.95
2018-10-02T02:06:40.922Z,1015.95
2018-10-02T02:06:41.522Z,1015.93
2018-10-02T02:06:42.122Z,1015.93
2018-10-02T02:07:36.632Z,1015.95
2018-10-02T02:07:37.204Z,1015.94
2018-10-02T02:07:37.798Z,1015.97
2018-10-02T02:07:38.398Z,1015.99
2018-10-02T02:07:38.999Z,1015.95
2018-10-02T02:07:39.599Z,1015.95
2018-10-02T02:07:40.199Z,1015.95
2018-10-02T02:07:40.798Z,1015.96
2018-10-02T02:08:34.280Z,1015.96
2018-10-02T02:08:34.851Z,1015.97
2018-10-02T02:08:35.452Z,1015.92
2018-10-02T02:08:36.054Z,1015.91
2018-10-02T02:08:36.651Z,1015.94
2018-10-02T02:08:37.254Z,1015.91
2018-10-02T02:08:37.855Z,1015.92
2018-10-02T02:08:38.452Z,1015.92
2018-10-02T02:09:31.932Z,1015.92
2018-10-02T02:09:32.503Z,1015.91
2018-10-02T02:09:33.106Z,1015.93
2018-10-02T02:09:33.703Z,1015.89
2018-10-02T02:09:34.302Z,1015.92
2018-10-02T02:09:34.904Z,1015.92
2018-10-02T02:09:35.506Z,1015.91
2018-10-02T02:09:36.102Z,1015.96
2018-10-02T02:10:29.583Z,1015.90
2018-10-02T02:10:30.154Z,1015.90
2018-10-02T02:10:30.753Z,1015.88
2018-10-02T02:10:31.353Z,1015.87
2018-10-02T02:10:31.955Z,1015.86
2018-10-02T02:10:32.553Z,1015.90
2018-10-02T02:10:33.153Z,1015.90
2018-10-02T02:10:33.755Z,1015.88
2018-10-02T02:11:27.243Z,1015.89
2018-10-02T02:11:27.806Z,1015.93
2018-10-02T02:11:28.406Z,1015.91
2018-10-02T02:11:29.006Z,1015.95
2018-10-02T02:11:29.608Z,1015.91
2018-10-02T02:11:30.205Z,1015.94
2018-10-02T02:11:30.809Z,1015.91
2018-10-02T02:11:31.407Z,1015.91
2018-10-02T02:12:24.885Z,1015.87
2018-10-02T02:12:25.457Z,1015.83
2018-10-02T02:12:26.058Z,1015.92
2018-10-02T02:12:26.658Z,1015.87
2018-10-02T02:12:27.260Z,1015.88
2018-10-02T02:12:27.863Z,1015.89
2018-10-02T02:12:28.455Z,1015.88
2018-10-02T02:12:29.055Z,1015.85
2018-10-02T02:13:22.539Z,1015.83
2018-10-02T02:13:23.110Z,1015.86
2018-10-02T02:13:23.711Z,1015.84
2018-10-02T02:13:24.311Z,1015.78
2018-10-02T02:13:24.910Z,1015.82
2018-10-02T02:13:25.511Z,1015.82
2018-10-02T02:13:26.113Z,1015.86
2018-10-02T02:13:26.710Z,1015.89
2018-10-02T02:14:20.190Z,1015.86
2018-10-02T02:14:20.763Z,1015.87
2018-10-02T02:14:21.362Z,1015.86
2018-10-02T02:14:21.967Z,1015.88
2018-10-02T02:14:22.561Z,1015.83
2018-10-02T02:14:23.162Z,1015.87
2018-10-02T02:14:23.764Z,1015.87
2018-10-02T02:14:24.360Z,1015.81
2018-10-02T02:15:17.841Z,1015.91
2018-10-02T02:15:18.413Z,1015.90
2018-10-02T02:15:19.013Z,1015.88
2018-10-02T02:15:19.613Z,1015.84
2018-10-02T02:15:20.214Z,1015.88
2018-10-02T02:15:20.815Z,1015.82
2018-10-02T02:15:21.416Z,1015.88
2018-10-02T02:15:22.016Z,1015.88
2018-10-02T02:16:15.494Z,1015.86
2018-10-02T02:16:16.065Z,1015.83
2018-10-02T02:16:16.665Z,1015.88
2018-10-02T02:16:17.269Z,1015.88
2018-10-02T02:16:17.864Z,1015.89
2018-10-02T02:16:18.467Z,1015.87
2018-10-02T02:16:19.067Z,1015.83
2018-10-02T02:16:19.665Z,1015.87
2018-10-02T02:17:13.144Z,1015.84
2018-10-02T02:17:13.717Z,1015.78
2018-10-02T02:17:14.318Z,1015.75
2018-10-02T02:17:14.917Z,1015.77
2018-10-02T02:17:15.516Z,1015.83
2018-10-02T02:17:16.119Z,1015.79
2018-10-02T02:17:16.722Z,1015.77
2018-10-02T02:17:17.318Z,1015.78
2018-10-02T02:18:10.798Z,1015.74
2018-10-02T02:18:11.369Z,1015.74
2018-10-02T02:18:11.968Z,1015.78
2018-10-02T02:18:12.568Z,1015.79
2018-10-02T02:18:13.169Z,1015.75
2018-10-02T02:18:13.767Z,1015.75
2018-10-02T02:18:14.369Z,1015.77
2018-10-02T02:18:14.967Z,1015.77
2018-10-02T02:19:08.448Z,1015.72
2018-10-02T02:19:09.022Z,1015.70
2018-10-02T02:19:09.619Z,1015.71
2018-10-02T02:19:10.222Z,1015.73
2018-10-02T02:19:10.821Z,1015.69
2018-10-02T02:19:11.424Z,1015.70
2018-10-02T02:19:12.022Z,1015.74
2018-10-02T02:19:12.619Z,1015.71
2018-10-02T02:20:06.099Z,1015.66
2018-10-02T02:20:06.672Z,1015.71
2018-10-02T02:20:07.272Z,1015.66
2018-10-02T02:20:07.873Z,1015.69
2018-10-02T02:20:08.476Z,1015.68
2018-10-02T02:20:09.074Z,1015.72
2018-10-02T02:20:09.674Z,1015.73
2018-10-02T02:20:10.271Z,1015.69
2018-10-02T02:21:03.751Z,1015.65
2018-10-02T02:21:04.327Z,1015.67
2018-10-02T02:21:04.923Z,1015.66
2018-10-02T02:21:05.524Z,1015.64
2018-10-02T02:21:06.123Z,1015.64
2018-10-02T02:21:06.726Z,1015.66
2018-10-02T02:21:07.326Z,1015.65
2018-10-02T02:21:07.921Z,1015.67
2018-10-02T02:22:01.403Z,1015.63
2018-10-02T02:22:01.976Z,1015.67
2018-10-02T02:22:02.575Z,1015.68
2018-10-02T02:22:03.173Z,1015.67
2018-10-02T02:22:03.775Z,1015.63
2018-10-02T02:22:04.376Z,1015.69
2018-10-02T02:22:04.977Z,1015.64
2018-10-02T02:22:05.576Z,1015.64
2018-10-02T02:22:59.056Z,1015.65
2018-10-02T02:22:59.628Z,1015.64
2018-10-02T02:23:00.267Z,1015.65
2018-10-02T02:23:00.828Z,1015.67
2018-10-02T02:23:01.427Z,1015.65
2018-10-02T02:23:02.026Z,1015.67
2018-10-02T02:23:02.629Z,1015.64
2018-10-02T02:23:03.228Z,1015.65
2018-10-02T02:23:56.707Z,1015.64
2018-10-02T02:23:57.279Z,1015.60
2018-10-02T02:23:57.884Z,1015.63
2018-10-02T02:23:58.479Z,1015.63
2018-10-02T02:23:59.078Z,1015.60
2018-10-02T02:23:59.680Z,1015.63
2018-10-02T02:24:00.282Z,1015.62
2018-10-02T02:24:00.879Z,1015.60
2018-10-02T02:24:55.381Z,1015.63
2018-10-02T02:24:55.953Z,1015.60
2018-10-02T02:24:56.553Z,1015.58
2018-10-02T02:24:57.155Z,1015.61
2018-10-02T02:24:57.751Z,1015.59
2018-10-02T02:24:58.354Z,1015.60
2018-10-02T02:24:58.950Z,1015.55
2018-10-02T02:24:59.553Z,1015.62
2018-10-02T02:25:53.033Z,1015.61
2018-10-02T02:25:53.605Z,1015.64
2018-10-02T02:25:54.209Z,1015.60
2018-10-02T02:25:54.805Z,1015.58
2018-10-02T02:25:55.405Z,1015.60
2018-10-02T02:25:56.005Z,1015.60
2018-10-02T02:25:56.612Z,1015.63
2018-10-02T02:25:57.205Z,1015.62
2018-10-02T02:26:50.700Z,1015.54
2018-10-02T02:26:51.258Z,1015.54
2018-10-02T02:26:51.858Z,1015.53
2018-10-02T02:26:52.458Z,1015.55
2018-10-02T02:26:53.057Z,1015.54
2018-10-02T02:26:53.659Z,1015.55
2018-10-02T02:26:54.259Z,1015.53
2018-10-02T02:26:54.857Z,1015.54
2018-10-02T02:28:46.008Z,1015.47
2018-10-02T02:28:46.587Z,1015.43
2018-10-02T02:28:47.181Z,1015.45
2018-10-02T02:28:47.784Z,1015.47
2018-10-02T02:28:48.381Z,1015.46
2018-10-02T02:28:48.982Z,1015.47
2018-10-02T02:28:49.579Z,1015.46
2018-10-02T02:28:50.179Z,1015.49
2018-10-02T02:29:44.684Z,1015.44
2018-10-02T02:29:45.259Z,1015.43
2018-10-02T02:29:45.857Z,1015.42
2018-10-02T02:29:46.456Z,1015.42
2018-10-02T02:29:47.068Z,1015.42
2018-10-02T02:29:47.656Z,1015.43
2018-10-02T02:29:48.255Z,1015.44
2018-10-02T02:29:48.858Z,1015.40
2018-10-02T02:30:42.441Z,1015.42
2018-10-02T02:30:43.017Z,1015.39
2018-10-02T02:30:43.612Z,1015.43
2018-10-02T02:30:44.226Z,1015.39
2018-10-02T02:30:44.811Z,1015.37
2018-10-02T02:30:45.410Z,1015.42
2018-10-02T02:30:46.010Z,1015.41
2018-10-02T02:30:46.609Z,1015.42
2018-10-02T02:31:41.114Z,1015.35
2018-10-02T02:31:41.685Z,1015.37
2018-10-02T02:31:42.285Z,1015.40
2018-10-02T02:31:42.887Z,1015.34
2018-10-02T02:31:43.491Z,1015.34
2018-10-02T02:31:44.087Z,1015.37
2018-10-02T02:31:44.691Z,1015.36
2018-10-02T02:31:45.288Z,1015.34
2018-10-02T02:32:38.870Z,1015.27
2018-10-02T02:32:39.443Z,1015.29
2018-10-02T02:32:40.043Z,1015.31
2018-10-02T02:32:40.642Z,1015.31
2018-10-02T02:32:41.264Z,1015.32
2018-10-02T02:32:41.843Z,1015.34
2018-10-02T02:32:42.438Z,1015.32
2018-10-02T02:32:43.039Z,1015.31
2018-10-02T02:33:36.623Z,1015.36
2018-10-02T02:33:37.197Z,1015.36
2018-10-02T02:33:37.794Z,1015.38
2018-10-02T02:33:38.395Z,1015.35
2018-10-02T02:33:38.999Z,1015.33
2018-10-02T02:33:39.597Z,1015.33
2018-10-02T02:33:40.194Z,1015.35
2018-10-02T02:33:40.793Z,1015.34
2018-10-02T02:34:34.380Z,1015.37
2018-10-02T02:34:34.952Z,1015.32
2018-10-02T02:34:35.553Z,1015.33
2018-10-02T02:34:36.151Z,1015.32
2018-10-02T02:34:36.750Z,1015.32
2018-10-02T02:34:37.348Z,1015.29
2018-10-02T02:34:37.947Z,1015.33
2018-10-02T02:34:38.548Z,1015.33
2018-10-02T02:35:32.132Z,1015.28
2018-10-02T02:35:32.705Z,1015.31
2018-10-02T02:35:33.303Z,1015.33
2018-10-02T02:35:33.903Z,1015.32
2018-10-02T02:35:34.504Z,1015.28
2018-10-02T02:35:35.101Z,1015.27
2018-10-02T02:35:35.702Z,1015.31
2018-10-02T02:35:36.304Z,1015.32
2018-10-02T02:37:28.538Z,1015.29
2018-10-02T02:38:27.235Z,1015.35
2018-10-02T02:38:27.808Z,1015.37
2018-10-02T02:38:28.408Z,1015.34
2018-10-02T02:38:29.007Z,1015.34
2018-10-02T02:38:29.608Z,1015.35
2018-10-02T02:38:30.206Z,1015.36
2018-10-02T02:38:30.811Z,1015.33
2018-10-02T02:38:31.406Z,1015.32
2018-10-02T02:39:24.990Z,1015.36
2018-10-02T02:39:25.567Z,1015.34
2018-10-02T02:39:26.162Z,1015.39
2018-10-02T02:39:26.763Z,1015.36
2018-10-02T02:39:27.363Z,1015.34
2018-10-02T02:39:27.960Z,1015.35
2018-10-02T02:39:28.566Z,1015.36
2018-10-02T02:39:29.162Z,1015.36
2018-10-02T02:41:22.345Z,1015.42
2018-10-02T02:41:22.917Z,1015.39
2018-10-02T02:41:23.513Z,1015.40
2018-10-02T02:41:24.113Z,1015.39
2018-10-02T02:41:24.713Z,1015.40
2018-10-02T02:41:25.317Z,1015.41
2018-10-02T02:41:25.956Z,1015.42
2018-10-02T02:41:26.513Z,1015.43
2018-10-02T02:42:21.017Z,1015.41
2018-10-02T02:42:21.590Z,1015.38
2018-10-02T02:42:22.192Z,1015.42
2018-10-02T02:42:22.789Z,1015.39
2018-10-02T02:42:23.388Z,1015.40
2018-10-02T02:42:23.993Z,1015.41
2018-10-02T02:42:24.588Z,1015.42
2018-10-02T02:42:25.187Z,1015.39
2018-10-02T02:43:18.772Z,1015.40
2018-10-02T02:43:19.346Z,1015.38
2018-10-02T02:43:19.945Z,1015.40
2018-10-02T02:43:20.549Z,1015.39
2018-10-02T02:43:21.144Z,1015.39
2018-10-02T02:43:21.742Z,1015.39
2018-10-02T02:43:22.358Z,1015.40
2018-10-02T02:43:22.941Z,1015.39
2018-10-02T02:44:17.446Z,1015.41
2018-10-02T02:44:18.021Z,1015.43
2018-10-02T02:44:18.622Z,1015.42
2018-10-02T02:44:19.220Z,1015.39
2018-10-02T02:44:19.819Z,1015.43
2018-10-02T02:44:20.418Z,1015.41
2018-10-02T02:44:21.018Z,1015.44
2018-10-02T02:44:21.618Z,1015.42
2018-10-02T02:45:16.103Z,1015.43
2018-10-02T02:45:16.689Z,1015.43
2018-10-02T02:45:17.276Z,1015.41
2018-10-02T02:45:17.874Z,1015.39
2018-10-02T02:45:18.474Z,1015.39
2018-10-02T02:45:19.075Z,1015.42
2018-10-02T02:45:19.675Z,1015.40
2018-10-02T02:45:20.272Z,1015.41
2018-10-02T02:46:13.755Z,1015.40
2018-10-02T02:46:14.327Z,1015.45
2018-10-02T02:46:14.927Z,1015.45
2018-10-02T02:46:15.527Z,1015.42
2018-10-02T02:46:16.125Z,1015.47
2018-10-02T02:46:16.728Z,1015.44
2018-10-02T02:46:17.331Z,1015.41
2018-10-02T02:46:17.926Z,1015.41
2018-10-02T02:47:11.406Z,1015.44
2018-10-02T02:47:11.980Z,1015.44
2018-10-02T02:47:12.578Z,1015.44
2018-10-02T02:47:13.178Z,1015.44
2018-10-02T02:47:13.783Z,1015.45
2018-10-02T02:47:14.379Z,1015.43
2018-10-02T02:47:14.982Z,1015.44
2018-10-02T02:47:15.577Z,1015.43
2018-10-02T02:48:10.081Z,1015.47
2018-10-02T02:49:07.754Z,1015.53
2018-10-02T02:49:08.326Z,1015.55
2018-10-02T02:49:08.926Z,1015.50
2018-10-02T02:49:09.526Z,1015.52
2018-10-02T02:49:10.129Z,1015.54
2018-10-02T02:49:10.728Z,1015.47
2018-10-02T02:49:11.328Z,1015.49
2018-10-02T02:49:11.927Z,1015.53
2018-10-02T02:51:04.162Z,1015.56
2018-10-02T02:51:04.735Z,1015.56
2018-10-02T02:51:05.335Z,1015.55
2018-10-02T02:51:05.935Z,1015.57
2018-10-02T02:51:06.535Z,1015.56
2018-10-02T02:51:07.137Z,1015.54
2018-10-02T02:51:07.735Z,1015.56
2018-10-02T02:51:08.338Z,1015.58
2018-10-02T02:52:01.819Z,1015.52
2018-10-02T02:52:02.389Z,1015.52
2018-10-02T02:52:02.990Z,1015.55
2018-10-02T02:52:03.588Z,1015.55
2018-10-02T02:52:04.189Z,1015.54
2018-10-02T02:52:04.790Z,1015.52
2018-10-02T02:52:05.389Z,1015.52
2018-10-02T02:52:05.987Z,1015.53
2018-10-02T02:52:59.469Z,1015.53
2018-10-02T02:53:00.041Z,1015.55
2018-10-02T02:53:00.641Z,1015.53
2018-10-02T02:53:01.240Z,1015.52
2018-10-02T02:53:01.840Z,1015.55
2018-10-02T02:53:02.440Z,1015.52
2018-10-02T02:53:03.040Z,1015.53
2018-10-02T02:53:03.644Z,1015.52
2018-10-02T02:53:57.119Z,1015.54
2018-10-02T02:53:57.693Z,1015.53
2018-10-02T02:53:58.314Z,1015.56
2018-10-02T02:53:58.891Z,1015.57
2018-10-02T02:53:59.493Z,1015.54
2018-10-02T02:54:00.093Z,1015.56
2018-10-02T02:54:00.692Z,1015.55
2018-10-02T02:54:01.291Z,1015.54
2018-10-02T02:54:57.338Z,1015.57
2018-10-02T02:54:57.902Z,1015.59
2018-10-02T02:54:58.502Z,1015.58
2018-10-02T02:54:59.104Z,1015.52
2018-10-02T02:54:59.700Z,1015.58
2018-10-02T02:55:00.301Z,1015.57
2018-10-02T02:56:43.313Z,1015.58
2018-10-02T02:56:43.891Z,1015.60
2018-10-02T02:56:44.489Z,1015.56
2018-10-02T02:56:45.089Z,1015.55
2018-10-02T02:56:45.687Z,1015.58
2018-10-02T02:56:46.288Z,1015.59
2018-10-02T02:56:46.892Z,1015.57
2018-10-02T02:56:47.487Z,1015.57
2018-10-02T02:56:48.086Z,1015.59
2018-10-02T02:56:48.686Z,1015.59
2018-10-02T02:56:49.287Z,1015.58
2018-10-02T05:44:04.331Z,1014.24
2018-10-02T05:44:04.902Z,1014.19
2018-10-02T05:44:05.505Z,1014.19
2018-10-02T05:44:06.108Z,1014.21
2018-10-02T05:44:06.704Z,1014.23
2018-10-02T05:44:07.302Z,1014.20
2018-10-02T05:44:07.906Z,1014.21
2018-10-02T05:44:08.502Z,1014.19
2018-10-02T05:45:01.991Z,1014.21
2018-10-02T05:45:02.556Z,1014.21
2018-10-02T05:45:03.156Z,1014.19
2018-10-02T05:45:03.756Z,1014.21
2018-10-02T05:45:04.355Z,1014.21
2018-10-02T05:45:04.957Z,1014.19
2018-10-02T05:45:05.563Z,1014.18
2018-10-02T05:45:06.156Z,1014.21
2018-10-02T05:46:00.187Z,1014.22
2018-10-02T05:46:00.690Z,1014.21
2018-10-02T05:46:01.290Z,1014.19
2018-10-02T05:46:01.889Z,1014.19
2018-10-02T05:46:02.492Z,1014.22
2018-10-02T05:46:03.089Z,1014.20
2018-10-02T05:46:03.691Z,1014.19
2018-10-02T05:47:17.154Z,1014.18
2018-10-02T05:47:17.728Z,1014.16
2018-10-02T05:47:18.331Z,1014.14
2018-10-02T05:47:18.926Z,1014.17
2018-10-02T05:47:19.531Z,1014.17
2018-10-02T05:47:20.135Z,1014.17
2018-10-02T05:47:20.733Z,1014.16
2018-10-02T05:47:21.325Z,1014.16
2018-10-02T05:48:14.806Z,1014.16
2018-10-02T05:48:15.384Z,1014.18
2018-10-02T05:48:15.978Z,1014.14
2018-10-02T05:48:16.578Z,1014.14
2018-10-02T05:48:17.183Z,1014.16
2018-10-02T05:48:17.776Z,1014.15
2018-10-02T05:48:18.375Z,1014.16
2018-10-02T05:48:18.975Z,1014.14
2018-10-02T05:49:13.482Z,1014.13
2018-10-02T05:49:14.054Z,1014.12
2018-10-02T05:49:14.655Z,1014.15
2018-10-02T05:49:15.254Z,1014.11
2018-10-02T05:49:15.852Z,1014.14
2018-10-02T05:49:16.461Z,1014.15
2018-10-02T05:49:17.054Z,1014.15
2018-10-02T05:49:17.670Z,1014.14
2018-10-02T05:50:11.134Z,1014.09
2018-10-02T05:50:11.708Z,1014.09
2018-10-02T05:50:12.308Z,1014.06
2018-10-02T05:50:12.906Z,1014.11
2018-10-02T05:50:13.511Z,1014.08
2018-10-02T05:50:14.105Z,1014.10
2018-10-02T05:50:14.705Z,1014.08
2018-10-02T05:50:15.307Z,1014.10
2018-10-02T05:51:08.787Z,1014.09
2018-10-02T05:51:09.361Z,1014.05
2018-10-02T05:51:09.962Z,1014.07
2018-10-02T05:51:10.559Z,1014.07
2018-10-02T05:51:11.163Z,1014.07
2018-10-02T05:51:11.759Z,1014.09
2018-10-02T05:51:12.359Z,1014.08
2018-10-02T05:51:12.960Z,1014.07
2018-10-02T05:52:06.444Z,1014.00
2018-10-02T05:52:07.009Z,1014.02
2018-10-02T05:52:07.611Z,1014.00
2018-10-02T05:52:08.209Z,1014.04
2018-10-02T05:52:08.814Z,1013.99
2018-10-02T05:52:09.409Z,1014.03
2018-10-02T05:52:10.009Z,1014.03
2018-10-02T05:52:10.608Z,1014.03